sensor_id;sensor_type;location;lat;lon;timestamp;pressure;altitude;pressure_sealevel;temperature;humidity
48614;BME280;34408;51.426;5.444;2023-11-19T00:00:08;100858.50;;;11.38;75.54
48614;BME280;34408;51.426;5.444;2023-11-19T00:02:39;100860.91;;;11.46;76.38
48614;BME280;34408;51.426;5.444;2023-11-19T00:05:09;100865.22;;;11.47;76.24
48614;BME280;34408;51.426;5.444;2023-11-19T00:07:39;100862.53;;;11.47;75.86
48614;BME280;34408;51.426;5.444;2023-11-19T00:10:09;100857.16;;;11.47;76.13
48614;BME280;34408;51.426;5.444;2023-11-19T00:12:38;100864.19;;;11.48;76.08
48614;BME280;34408;51.426;5.444;2023-11-19T00:15:07;100855.06;;;11.49;76.38
48614;BME280;34408;51.426;5.444;2023-11-19T00:17:38;100848.63;;;11.50;76.32
48614;BME280;34408;51.426;5.444;2023-11-19T00:20:09;100838.69;;;11.51;75.94
48614;BME280;34408;51.426;5.444;2023-11-19T00:22:37;100840.31;;;11.52;75.95
48614;BME280;34408;51.426;5.444;2023-11-19T00:25:15;100818.28;;;11.43;76.23
48614;BME280;34408;51.426;5.444;2023-11-19T00:27:43;100825.00;;;11.52;76.00
48614;BME280;34408;51.426;5.444;2023-11-19T00:30:12;100816.09;;;11.52;76.23
48614;BME280;34408;51.426;5.444;2023-11-19T00:32:41;100803.47;;;11.52;76.12
48614;BME280;34408;51.426;5.444;2023-11-19T00:35:10;100804.28;;;11.53;76.00
48614;BME280;34408;51.426;5.444;2023-11-19T00:37:41;100795.38;;;11.52;76.25
48614;BME280;34408;51.426;5.444;2023-11-19T00:40:10;100815.88;;;11.53;76.26
48614;BME280;34408;51.426;5.444;2023-11-19T00:42:38;100809.66;;;11.53;76.51
48614;BME280;34408;51.426;5.444;2023-11-19T00:45:06;100816.69;;;11.54;76.25
48614;BME280;34408;51.426;5.444;2023-11-19T00:47:36;100821.03;;;11.55;76.34
48614;BME280;34408;51.426;5.444;2023-11-19T00:50:05;100817.50;;;11.54;76.42
48614;BME280;34408;51.426;5.444;2023-11-19T00:52:34;100814.00;;;11.54;76.60
48614;BME280;34408;51.426;5.444;2023-11-19T00:55:03;100805.19;;;11.47;76.16
48614;BME280;34408;51.426;5.444;2023-11-19T00:57:31;100798.63;;;11.43;76.73
48614;BME280;34408;51.426;5.444;2023-11-19T00:59:59;100824.31;;;11.57;76.73
48614;BME280;34408;51.426;5.444;2023-11-19T01:02:27;100825.34;;;11.56;76.64
48614;BME280;34408;51.426;5.444;2023-11-19T01:04:55;100820.56;;;11.58;76.78
48614;BME280;34408;51.426;5.444;2023-11-19T01:07:23;100822.44;;;11.57;76.73
48614;BME280;34408;51.426;5.444;2023-11-19T01:09:54;100812.50;;;11.58;76.75
48614;BME280;34408;51.426;5.444;2023-11-19T01:12:22;100815.88;;;11.53;76.67
48614;BME280;34408;51.426;5.444;2023-11-19T01:14:50;100826.53;;;11.60;76.83
48614;BME280;34408;51.426;5.444;2023-11-19T01:17:18;100821.97;;;11.60;77.27
48614;BME280;34408;51.426;5.444;2023-11-19T01:19:45;100812.84;;;11.61;77.07
48614;BME280;34408;51.426;5.444;2023-11-19T01:22:13;100807.22;;;11.51;77.39
48614;BME280;34408;51.426;5.444;2023-11-19T01:24:41;100808.88;;;11.64;77.48
48614;BME280;34408;51.426;5.444;2023-11-19T01:27:10;100806.19;;;11.64;77.13
48614;BME280;34408;51.426;5.444;2023-11-19T01:29:38;100793.78;;;11.63;77.71
48614;BME280;34408;51.426;5.444;2023-11-19T01:32:06;100789.22;;;11.63;77.00
48614;BME280;34408;51.426;5.444;2023-11-19T01:34:34;100781.16;;;11.63;77.42
48614;BME280;34408;51.426;5.444;2023-11-19T01:37:02;100783.38;;;11.66;77.26
48614;BME280;34408;51.426;5.444;2023-11-19T01:39:30;100779.88;;;11.66;77.37
48614;BME280;34408;51.426;5.444;2023-11-19T01:41:58;100770.75;;;11.67;77.19
48614;BME280;34408;51.426;5.444;2023-11-19T01:44:27;100772.59;;;11.66;77.08
48614;BME280;34408;51.426;5.444;2023-11-19T01:46:55;100785.00;;;11.67;77.24
48614;BME280;34408;51.426;5.444;2023-11-19T01:49:23;100774.47;;;11.66;77.24
48614;BME280;34408;51.426;5.444;2023-11-19T01:51:51;100788.75;;;11.66;77.67
48614;BME280;34408;51.426;5.444;2023-11-19T01:54:19;100782.56;;;11.66;77.21
48614;BME280;34408;51.426;5.444;2023-11-19T01:56:47;100781.38;;;11.62;77.61
48614;BME280;34408;51.426;5.444;2023-11-19T01:59:15;100785.00;;;11.67;77.78
48614;BME280;34408;51.426;5.444;2023-11-19T02:01:45;100796.00;;;11.66;78.49
48614;BME280;34408;51.426;5.444;2023-11-19T02:04:12;100799.06;;;11.69;78.46
48614;BME280;34408;51.426;5.444;2023-11-19T02:06:41;100800.13;;;11.68;78.61
48614;BME280;34408;51.426;5.444;2023-11-19T02:09:10;100799.06;;;11.69;78.54
48614;BME280;34408;51.426;5.444;2023-11-19T02:11:39;100807.97;;;11.70;78.30
48614;BME280;34408;51.426;5.444;2023-11-19T02:14:07;100795.31;;;11.70;77.84
48614;BME280;34408;51.426;5.444;2023-11-19T02:16:35;100787.94;;;11.66;77.73
48614;BME280;34408;51.426;5.444;2023-11-19T02:19:04;100794.50;;;11.70;77.62
48614;BME280;34408;51.426;5.444;2023-11-19T02:21:34;100788.28;;;11.69;77.61
48614;BME280;34408;51.426;5.444;2023-11-19T02:24:06;100788.75;;;11.66;77.88
48614;BME280;34408;51.426;5.444;2023-11-19T02:26:39;100791.00;;;11.69;77.78
48614;BME280;34408;51.426;5.444;2023-11-19T02:29:10;100782.91;;;11.69;77.74
48614;BME280;34408;51.426;5.444;2023-11-19T02:31:38;100771.31;;;11.69;78.05
48614;BME280;34408;51.426;5.444;2023-11-19T02:34:06;100782.09;;;11.69;78.30
48614;BME280;34408;51.426;5.444;2023-11-19T02:36:33;100781.50;;;11.67;78.06
48614;BME280;34408;51.426;5.444;2023-11-19T02:39:01;100780.44;;;11.68;78.35
48614;BME280;34408;51.426;5.444;2023-11-19T02:41:29;100784.19;;;11.67;78.20
48614;BME280;34408;51.426;5.444;2023-11-19T02:43:57;100769.69;;;11.68;78.21
48614;BME280;34408;51.426;5.444;2023-11-19T02:46:26;100756.91;;;11.63;77.87
48614;BME280;34408;51.426;5.444;2023-11-19T02:48:54;100761.59;;;11.68;77.89
48614;BME280;34408;51.426;5.444;2023-11-19T02:51:22;100759.75;;;11.68;77.74
48614;BME280;34408;51.426;5.444;2023-11-19T02:53:50;100758.09;;;11.67;77.99
48614;BME280;34408;51.426;5.444;2023-11-19T02:56:17;100755.38;;;11.56;78.14
48614;BME280;34408;51.426;5.444;2023-11-19T02:58:52;100779.63;;;11.67;77.98
48614;BME280;34408;51.426;5.444;2023-11-19T03:01:25;100771.56;;;11.67;78.07
48614;BME280;34408;51.426;5.444;2023-11-19T03:03:58;100762.66;;;11.67;78.18
48614;BME280;34408;51.426;5.444;2023-11-19T03:06:28;100763.72;;;11.66;78.25
48614;BME280;34408;51.426;5.444;2023-11-19T03:08:56;100778.00;;;11.66;78.02
48614;BME280;34408;51.426;5.444;2023-11-19T03:11:23;100771.78;;;11.66;78.04
48614;BME280;34408;51.426;5.444;2023-11-19T03:13:52;100761.03;;;11.66;78.20
48614;BME280;34408;51.426;5.444;2023-11-19T03:16:19;100774.47;;;11.66;78.04
48614;BME280;34408;51.426;5.444;2023-11-19T03:18:49;100775.31;;;11.66;78.29
48614;BME280;34408;51.426;5.444;2023-11-19T03:21:17;100766.41;;;11.66;78.22
48614;BME280;34408;51.426;5.444;2023-11-19T03:23:44;100785.25;;;11.66;78.05
48614;BME280;34408;51.426;5.444;2023-11-19T03:26:12;100784.44;;;11.65;78.29
48614;BME280;34408;51.426;5.444;2023-11-19T03:28:40;100779.50;;;11.62;78.27
48614;BME280;34408;51.426;5.444;2023-11-19T03:31:08;100777.16;;;11.66;77.99
48614;BME280;34408;51.426;5.444;2023-11-19T03:33:36;100785.25;;;11.66;78.22
48614;BME280;34408;51.426;5.444;2023-11-19T03:36:06;100783.38;;;11.66;78.00
48614;BME280;34408;51.426;5.444;2023-11-19T03:38:35;100764.63;;;11.60;78.32
48614;BME280;34408;51.426;5.444;2023-11-19T03:41:10;100776.34;;;11.65;77.94
48614;BME280;34408;51.426;5.444;2023-11-19T03:43:38;100775.53;;;11.65;78.14
48614;BME280;34408;51.426;5.444;2023-11-19T03:46:16;100771.78;;;11.66;78.11
48614;BME280;34408;51.426;5.444;2023-11-19T03:48:44;100776.34;;;11.65;77.95
48614;BME280;34408;51.426;5.444;2023-11-19T03:51:14;100781.72;;;11.65;77.96
48614;BME280;34408;51.426;5.444;2023-11-19T03:53:42;100778.22;;;11.65;77.78
48614;BME280;34408;51.426;5.444;2023-11-19T03:56:10;100784.44;;;11.65;77.86
48614;BME280;34408;51.426;5.444;2023-11-19T03:58:39;100794.38;;;11.65;77.87
48614;BME280;34408;51.426;5.444;2023-11-19T04:01:11;100787.34;;;11.64;77.67
48614;BME280;34408;51.426;5.444;2023-11-19T04:03:39;100789.22;;;11.63;77.69
48614;BME280;34408;51.426;5.444;2023-11-19T04:06:18;100793.78;;;11.63;77.64
48614;BME280;34408;51.426;5.444;2023-11-19T04:08:46;100790.28;;;11.62;77.70
48614;BME280;34408;51.426;5.444;2023-11-19T04:11:14;100787.59;;;11.62;78.12
48614;BME280;34408;51.426;5.444;2023-11-19T04:13:41;100777.88;;;11.61;77.78
48614;BME280;34408;51.426;5.444;2023-11-19T04:16:10;100789.44;;;11.62;77.77
48614;BME280;34408;51.426;5.444;2023-11-19T04:18:38;100785.94;;;11.61;77.86
48614;BME280;34408;51.426;5.444;2023-11-19T04:21:06;100783.25;;;11.61;77.73
48614;BME280;34408;51.426;5.444;2023-11-19T04:23:35;100783.25;;;11.61;77.31
48614;BME280;34408;51.426;5.444;2023-11-19T04:26:04;100789.44;;;11.62;77.61
48614;BME280;34408;51.426;5.444;2023-11-19T04:28:36;100806.66;;;11.61;77.51
48614;BME280;34408;51.426;5.444;2023-11-19T04:31:04;100791.56;;;11.60;77.72
48614;BME280;34408;51.426;5.444;2023-11-19T04:33:32;100808.53;;;11.60;78.21
48614;BME280;34408;51.426;5.444;2023-11-19T04:36:00;100811.44;;;11.59;78.00
48614;BME280;34408;51.426;5.444;2023-11-19T04:38:29;100816.81;;;11.59;77.75
48614;BME280;34408;51.426;5.444;2023-11-19T04:40:58;100808.75;;;11.59;77.64
48614;BME280;34408;51.426;5.444;2023-11-19T04:43:26;100793.66;;;11.58;78.08
48614;BME280;34408;51.426;5.444;2023-11-19T04:45:54;100786.41;;;11.58;77.79
48614;BME280;34408;51.426;5.444;2023-11-19T04:48:22;100783.72;;;11.58;77.62
48614;BME280;34408;51.426;5.444;2023-11-19T04:50:50;100789.91;;;11.59;77.48
48614;BME280;34408;51.426;5.444;2023-11-19T04:53:19;100803.38;;;11.59;77.48
48614;BME280;34408;51.426;5.444;2023-11-19T04:55:47;100793.53;;;11.53;78.00
48614;BME280;34408;51.426;5.444;2023-11-19T04:58:16;100796.34;;;11.58;77.48
48614;BME280;34408;51.426;5.444;2023-11-19T05:00:45;100794.47;;;11.58;77.44
48614;BME280;34408;51.426;5.444;2023-11-19T05:03:13;100810.63;;;11.58;77.27
48614;BME280;34408;51.426;5.444;2023-11-19T05:05:41;100813.31;;;11.58;77.60
48614;BME280;34408;51.426;5.444;2023-11-19T05:08:09;100803.59;;;11.57;77.59
48614;BME280;34408;51.426;5.444;2023-11-19T05:10:36;100819.53;;;11.59;77.73
48614;BME280;34408;51.426;5.444;2023-11-19T05:13:04;100820.34;;;11.59;77.27
48614;BME280;34408;51.426;5.444;2023-11-19T05:15:33;100814.97;;;11.59;77.37
48614;BME280;34408;51.426;5.444;2023-11-19T05:18:01;100812.34;;;11.53;77.34
48614;BME280;34408;51.426;5.444;2023-11-19T05:20:30;100823.25;;;11.58;77.28
48614;BME280;34408;51.426;5.444;2023-11-19T05:22:58;100811.44;;;11.59;77.10
48614;BME280;34408;51.426;5.444;2023-11-19T05:25:27;100810.03;;;11.56;77.15
48614;BME280;34408;51.426;5.444;2023-11-19T05:27:55;100820.56;;;11.58;77.08
48614;BME280;34408;51.426;5.444;2023-11-19T05:30:23;100815.19;;;11.58;76.89
48614;BME280;34408;51.426;5.444;2023-11-19T05:32:52;100816.47;;;11.55;77.04
48614;BME280;34408;51.426;5.444;2023-11-19T05:35:20;100835.91;;;11.57;77.19
48614;BME280;34408;51.426;5.444;2023-11-19T05:37:47;100832.16;;;11.58;77.17
48614;BME280;34408;51.426;5.444;2023-11-19T05:40:16;100823.25;;;11.58;77.24
48614;BME280;34408;51.426;5.444;2023-11-19T05:42:45;100829.47;;;11.58;77.17
48614;BME280;34408;51.426;5.444;2023-11-19T05:45:13;100821.84;;;11.55;77.00
48614;BME280;34408;51.426;5.444;2023-11-19T05:47:41;100821.84;;;11.55;77.00
48614;BME280;34408;51.426;5.444;2023-11-19T05:50:11;100826.63;;;11.53;77.05
48614;BME280;34408;51.426;5.444;2023-11-19T05:52:39;100833.66;;;11.54;77.10
48614;BME280;34408;51.426;5.444;2023-11-19T05:55:07;100821.25;;;11.53;76.96
48614;BME280;34408;51.426;5.444;2023-11-19T05:57:37;100831.19;;;11.53;77.20
48614;BME280;34408;51.426;5.444;2023-11-19T06:00:09;100834.94;;;11.52;77.06
48614;BME280;34408;51.426;5.444;2023-11-19T06:02:39;100831.19;;;11.53;76.93
48614;BME280;34408;51.426;5.444;2023-11-19T06:05:07;100831.44;;;11.51;76.77
48614;BME280;34408;51.426;5.444;2023-11-19T06:07:37;100833.06;;;11.52;76.72
48614;BME280;34408;51.426;5.444;2023-11-19T06:10:06;100837.63;;;11.52;76.55
48614;BME280;34408;51.426;5.444;2023-11-19T06:12:36;100842.41;;;11.50;76.83
48614;BME280;34408;51.426;5.444;2023-11-19T06:15:08;100841.97;;;11.53;76.40
48614;BME280;34408;51.426;5.444;2023-11-19T06:17:36;100835.75;;;11.52;76.42
48614;BME280;34408;51.426;5.444;2023-11-19T06:20:05;100823.72;;;11.55;76.57
48614;BME280;34408;51.426;5.444;2023-11-19T06:22:34;100828.50;;;11.53;76.25
48614;BME280;34408;51.426;5.444;2023-11-19T06:25:04;100825.22;;;11.51;76.31
48614;BME280;34408;51.426;5.444;2023-11-19T06:27:34;100825.22;;;11.51;76.32
48614;BME280;34408;51.426;5.444;2023-11-19T06:30:02;100841.75;;;11.54;76.37
48614;BME280;34408;51.426;5.444;2023-11-19T06:32:30;100838.44;;;11.52;76.10
48614;BME280;34408;51.426;5.444;2023-11-19T06:34:59;100834.34;;;11.50;76.29
48614;BME280;34408;51.426;5.444;2023-11-19T06:37:27;100846.16;;;11.49;76.06
48614;BME280;34408;51.426;5.444;2023-11-19T06:39:55;100839.13;;;11.48;76.10
48614;BME280;34408;51.426;5.444;2023-11-19T06:42:24;100832.94;;;11.47;76.35
48614;BME280;34408;51.426;5.444;2023-11-19T06:44:52;100831.28;;;11.46;76.11
48614;BME280;34408;51.426;5.444;2023-11-19T06:47:20;100838.44;;;11.52;75.87
48614;BME280;34408;51.426;5.444;2023-11-19T06:49:48;100828.97;;;11.50;76.11
48614;BME280;34408;51.426;5.444;2023-11-19T06:52:16;100821.81;;;11.44;75.73
48614;BME280;34408;51.426;5.444;2023-11-19T06:54:44;100828.22;;;11.43;76.10
48614;BME280;34408;51.426;5.444;2023-11-19T06:57:13;100832.94;;;11.47;75.85
48614;BME280;34408;51.426;5.444;2023-11-19T06:59:42;100846.38;;;11.47;75.87
48614;BME280;34408;51.426;5.444;2023-11-19T07:02:10;100847.22;;;11.48;75.92
48614;BME280;34408;51.426;5.444;2023-11-19T07:04:39;100844.53;;;11.48;75.78
48614;BME280;34408;51.426;5.444;2023-11-19T07:07:07;100847.66;;;11.45;75.82
48614;BME280;34408;51.426;5.444;2023-11-19T07:09:38;100868.16;;;11.46;75.45
48614;BME280;34408;51.426;5.444;2023-11-19T07:12:06;100858.19;;;11.46;75.59
48614;BME280;34408;51.426;5.444;2023-11-19T07:14:34;100863.81;;;11.45;75.30
48614;BME280;34408;51.426;5.444;2023-11-19T07:17:03;100865.69;;;11.44;75.60
48614;BME280;34408;51.426;5.444;2023-11-19T07:19:31;100875.63;;;11.44;75.34
48614;BME280;34408;51.426;5.444;2023-11-19T07:21:59;100879.13;;;11.44;75.30
48614;BME280;34408;51.426;5.444;2023-11-19T07:24:27;100877.50;;;11.43;75.26
48614;BME280;34408;51.426;5.444;2023-11-19T07:26:55;100878.53;;;11.42;75.61
48614;BME280;34408;51.426;5.444;2023-11-19T07:29:23;100889.91;;;11.44;75.65
48614;BME280;34408;51.426;5.444;2023-11-19T07:31:53;100883.69;;;11.44;75.40
48614;BME280;34408;51.426;5.444;2023-11-19T07:34:24;100890.13;;;11.43;75.58
48614;BME280;34408;51.426;5.444;2023-11-19T07:36:52;100896.78;;;11.40;75.51
48614;BME280;34408;51.426;5.444;2023-11-19T07:39:20;100899.63;;;11.45;75.54
48614;BME280;34408;51.426;5.444;2023-11-19T07:41:48;100892.22;;;11.40;75.53
48614;BME280;34408;51.426;5.444;2023-11-19T07:44:16;100896.56;;;11.41;75.31
48614;BME280;34408;51.426;5.444;2023-11-19T07:46:44;100890.34;;;11.41;75.64
48614;BME280;34408;51.426;5.444;2023-11-19T07:49:12;100897.59;;;11.40;75.57
48614;BME280;34408;51.426;5.444;2023-11-19T07:51:41;100890.34;;;11.41;75.58
48614;BME280;34408;51.426;5.444;2023-11-19T07:54:09;100888.72;;;11.40;75.42
48614;BME280;34408;51.426;5.444;2023-11-19T07:56:37;100884.38;;;11.39;75.43
48614;BME280;34408;51.426;5.444;2023-11-19T07:59:05;100882.50;;;11.39;75.63
48614;BME280;34408;51.426;5.444;2023-11-19T08:01:33;100886.25;;;11.38;75.73
48614;BME280;34408;51.426;5.444;2023-11-19T08:04:01;100895.13;;;11.39;75.50
48614;BME280;34408;51.426;5.444;2023-11-19T08:06:29;100891.41;;;11.40;75.45
48614;BME280;34408;51.426;5.444;2023-11-19T08:08:58;100890.34;;;11.41;75.22
48614;BME280;34408;51.426;5.444;2023-11-19T08:11:25;100902.75;;;11.42;75.30
48614;BME280;34408;51.426;5.444;2023-11-19T08:13:53;100902.16;;;11.40;75.45
48614;BME280;34408;51.426;5.444;2023-11-19T08:16:21;100899.47;;;11.40;75.24
48614;BME280;34408;51.426;5.444;2023-11-19T08:18:49;100902.75;;;11.42;75.53
48614;BME280;34408;51.426;5.444;2023-11-19T08:21:17;100904.19;;;11.45;75.41
48614;BME280;34408;51.426;5.444;2023-11-19T08:23:45;100910.06;;;11.53;75.30
48614;BME280;34408;51.426;5.444;2023-11-19T08:26:14;100908.63;;;11.69;74.44
48614;BME280;34408;51.426;5.444;2023-11-19T08:28:46;100913.19;;;11.87;73.79
48614;BME280;34408;51.426;5.444;2023-11-19T08:31:14;100903.31;;;12.11;72.80
48614;BME280;34408;51.426;5.444;2023-11-19T08:33:42;100904.00;;;12.29;72.50
48614;BME280;34408;51.426;5.444;2023-11-19T08:36:15;100898.63;;;12.29;71.66
48614;BME280;34408;51.426;5.444;2023-11-19T08:38:44;100908.47;;;12.35;71.91
48614;BME280;34408;51.426;5.444;2023-11-19T08:41:15;100893.47;;;12.28;72.21
48614;BME280;34408;51.426;5.444;2023-11-19T08:43:44;100884.44;;;12.22;72.16
48614;BME280;34408;51.426;5.444;2023-11-19T08:46:13;100896.03;;;12.11;72.98
48614;BME280;34408;51.426;5.444;2023-11-19T08:48:41;100905.41;;;12.09;72.99
48614;BME280;34408;51.426;5.444;2023-11-19T08:51:09;100902.00;;;12.01;73.10
48614;BME280;34408;51.426;5.444;2023-11-19T08:53:36;100910.16;;;11.95;73.74
48614;BME280;34408;51.426;5.444;2023-11-19T08:56:05;100907.34;;;11.90;73.64
48614;BME280;34408;51.426;5.444;2023-11-19T08:58:34;100906.75;;;11.88;73.91
48614;BME280;34408;51.426;5.444;2023-11-19T09:01:02;100908.84;;;11.86;74.31
48614;BME280;34408;51.426;5.444;2023-11-19T09:03:31;100904.50;;;11.85;73.94
48614;BME280;34408;51.426;5.444;2023-11-19T09:06:00;100911.16;;;11.82;74.11
48614;BME280;34408;51.426;5.444;2023-11-19T09:08:28;100909.31;;;11.83;74.27
48614;BME280;34408;51.426;5.444;2023-11-19T09:10:56;100902.50;;;11.80;74.20
48614;BME280;34408;51.426;5.444;2023-11-19T09:13:23;100917.84;;;11.80;74.55
48614;BME280;34408;51.426;5.444;2023-11-19T09:15:53;100898.97;;;11.80;74.33
48614;BME280;34408;51.426;5.444;2023-11-19T09:18:20;100902.88;;;11.84;74.58
48614;BME280;34408;51.426;5.444;2023-11-19T09:20:48;100917.00;;;11.79;74.34
48614;BME280;34408;51.426;5.444;2023-11-19T09:23:16;100904.59;;;11.78;74.52
48614;BME280;34408;51.426;5.444;2023-11-19T09:25:44;100912.44;;;11.80;74.85
48614;BME280;34408;51.426;5.444;2023-11-19T09:28:12;100898.53;;;11.83;74.72
48614;BME280;34408;51.426;5.444;2023-11-19T09:30:40;100912.00;;;11.83;74.34
48614;BME280;34408;51.426;5.444;2023-11-19T09:33:10;100897.94;;;11.81;74.36
48614;BME280;34408;51.426;5.444;2023-11-19T09:35:38;100898.06;;;11.86;74.76
48614;BME280;34408;51.426;5.444;2023-11-19T09:38:06;100881.91;;;11.86;74.45
48614;BME280;34408;51.426;5.444;2023-11-19T09:40:34;100898.44;;;11.89;74.35
48614;BME280;34408;51.426;5.444;2023-11-19T09:43:01;100898.44;;;11.89;74.62
48614;BME280;34408;51.426;5.444;2023-11-19T09:45:32;100897.84;;;11.87;74.36
48614;BME280;34408;51.426;5.444;2023-11-19T09:48:09;100887.91;;;11.88;74.55
48614;BME280;34408;51.426;5.444;2023-11-19T09:50:39;100898.06;;;11.86;74.35
48614;BME280;34408;51.426;5.444;2023-11-19T09:53:07;100902.88;;;11.84;74.32
48614;BME280;34408;51.426;5.444;2023-11-19T09:55:36;100893.28;;;11.88;74.45
48614;BME280;34408;51.426;5.444;2023-11-19T09:58:04;100900.66;;;11.92;74.33
48614;BME280;34408;51.426;5.444;2023-11-19T10:00:33;100895.59;;;11.84;74.38
48614;BME280;34408;51.426;5.444;2023-11-19T10:03:02;100895.50;;;11.91;74.24
48614;BME280;34408;51.426;5.444;2023-11-19T10:05:33;100901.53;;;12.04;74.03
48614;BME280;34408;51.426;5.444;2023-11-19T10:08:01;100902.34;;;12.05;73.82
48614;BME280;34408;51.426;5.444;2023-11-19T10:10:29;100883.94;;;12.02;74.07
48614;BME280;34408;51.426;5.444;2023-11-19T10:12:57;100890.16;;;12.02;73.77
48614;BME280;34408;51.426;5.444;2023-11-19T10:15:27;100887.69;;;12.01;74.07
48614;BME280;34408;51.426;5.444;2023-11-19T10:17:56;100894.72;;;12.02;73.93
48614;BME280;34408;51.426;5.444;2023-11-19T10:20:25;100898.47;;;12.01;74.08
48614;BME280;34408;51.426;5.444;2023-11-19T10:22:55;100890.16;;;12.02;73.99
48614;BME280;34408;51.426;5.444;2023-11-19T10:25:24;100907.63;;;12.12;74.21
48614;BME280;34408;51.426;5.444;2023-11-19T10:27:53;100893.09;;;12.24;73.63
48614;BME280;34408;51.426;5.444;2023-11-19T10:30:22;100896.63;;;12.13;73.53
48614;BME280;34408;51.426;5.444;2023-11-19T10:33:07;100884.91;;;12.08;73.78
48614;BME280;34408;51.426;5.444;2023-11-19T10:35:51;100883.13;;;12.01;73.85
48614;BME280;34408;51.426;5.444;2023-11-19T10:38:23;100893.34;;;12.11;73.86
48614;BME280;34408;51.426;5.444;2023-11-19T10:40:53;100899.19;;;12.08;73.85
48614;BME280;34408;51.426;5.444;2023-11-19T10:43:22;100893.44;;;12.16;74.04
48614;BME280;34408;51.426;5.444;2023-11-19T10:45:50;100889.69;;;12.05;73.94
48614;BME280;34408;51.426;5.444;2023-11-19T10:48:19;100886.19;;;12.28;74.09
48614;BME280;34408;51.426;5.444;2023-11-19T10:50:53;100892.63;;;12.16;74.00
48614;BME280;34408;51.426;5.444;2023-11-19T10:53:23;100902.25;;;12.12;73.69
48614;BME280;34408;51.426;5.444;2023-11-19T10:55:54;100905.41;;;12.09;73.60
48614;BME280;34408;51.426;5.444;2023-11-19T10:58:27;100914.53;;;12.08;73.85
48614;BME280;34408;51.426;5.444;2023-11-19T11:00:57;100897.09;;;12.10;73.86
48614;BME280;34408;51.426;5.444;2023-11-19T11:03:30;100892.28;;;12.12;73.87
48614;BME280;34408;51.426;5.444;2023-11-19T11:06:02;100895.00;;;12.12;74.09
48614;BME280;34408;51.426;5.444;2023-11-19T11:08:36;100893.69;;;12.15;74.00
48614;BME280;34408;51.426;5.444;2023-11-19T11:11:05;100882.78;;;12.21;73.83
48614;BME280;34408;51.426;5.444;2023-11-19T11:13:34;100882.78;;;12.21;73.53
48614;BME280;34408;51.426;5.444;2023-11-19T11:16:05;100878.09;;;12.17;73.98
48614;BME280;34408;51.426;5.444;2023-11-19T11:18:34;100870.38;;;12.20;74.09
48614;BME280;34408;51.426;5.444;2023-11-19T11:21:06;100872.25;;;12.20;73.94
48614;BME280;34408;51.426;5.444;2023-11-19T11:24:15;100877.03;;;12.18;73.57
48614;BME280;34408;51.426;5.444;2023-11-19T11:27:22;100875.19;;;12.18;73.76
48614;BME280;34408;51.426;5.444;2023-11-19T11:29:56;100881.03;;;12.15;73.71
48614;BME280;34408;51.426;5.444;2023-11-19T11:32:34;100872.13;;;12.15;74.03
48614;BME280;34408;51.426;5.444;2023-11-19T11:35:26;100874.13;;;12.19;73.61
48614;BME280;34408;51.426;5.444;2023-11-19T11:38:02;100874.94;;;12.20;73.75
48614;BME280;34408;51.426;5.444;2023-11-19T11:40:32;100866.50;;;12.16;74.04
48614;BME280;34408;51.426;5.444;2023-11-19T11:43:00;100873.75;;;12.16;74.06
48614;BME280;34408;51.426;5.444;2023-11-19T11:45:38;100857.63;;;12.27;74.29
48614;BME280;34408;51.426;5.444;2023-11-19T11:48:10;100846.13;;;12.20;74.44
48614;BME280;34408;51.426;5.444;2023-11-19T11:50:52;100840.63;;;12.15;74.04
48614;BME280;34408;51.426;5.444;2023-11-19T11:53:21;100822.34;;;12.05;74.29
48614;BME280;34408;51.426;5.444;2023-11-19T11:55:59;100850.34;;;12.16;74.11
48614;BME280;34408;51.426;5.444;2023-11-19T11:58:32;100849.75;;;12.14;74.36
48614;BME280;34408;51.426;5.444;2023-11-19T12:01:01;100855.13;;;12.14;74.78
48614;BME280;34408;51.426;5.444;2023-11-19T12:03:32;100850.56;;;12.15;74.46
48614;BME280;34408;51.426;5.444;2023-11-19T12:06:00;100845.44;;;12.13;74.63
48614;BME280;34408;51.426;5.444;2023-11-19T12:08:29;100845.19;;;12.15;74.60
48614;BME280;34408;51.426;5.444;2023-11-19T12:11:00;100843.53;;;12.14;74.85
48614;BME280;34408;51.426;5.444;2023-11-19T12:13:53;100841.66;;;12.14;74.50
48614;BME280;34408;51.426;5.444;2023-11-19T12:16:25;100834.16;;;12.16;74.68
48614;BME280;34408;51.426;5.444;2023-11-19T12:18:54;100813.69;;;12.03;74.57
48614;BME280;34408;51.426;5.444;2023-11-19T12:21:29;100826.31;;;12.15;74.77
48614;BME280;34408;51.426;5.444;2023-11-19T12:23:58;100831.47;;;12.16;74.42
48614;BME280;34408;51.426;5.444;2023-11-19T12:26:36;100818.59;;;12.18;74.73
48614;BME280;34408;51.426;5.444;2023-11-19T12:29:05;100818.59;;;12.18;74.37
48614;BME280;34408;51.426;5.444;2023-11-19T12:31:35;100825.03;;;12.17;74.61
48614;BME280;34408;51.426;5.444;2023-11-19T12:34:07;100835.81;;;12.17;74.55
48614;BME280;34408;51.426;5.444;2023-11-19T12:36:40;100827.50;;;12.19;74.30
48614;BME280;34408;51.426;5.444;2023-11-19T12:39:09;100834.53;;;12.20;74.52
48614;BME280;34408;51.426;5.444;2023-11-19T12:41:56;100841.78;;;12.19;74.36
48614;BME280;34408;51.426;5.444;2023-11-19T12:44:26;100845.53;;;12.18;74.32
48614;BME280;34408;51.426;5.444;2023-11-19T12:47:04;100844.25;;;12.21;74.79
48614;BME280;34408;51.426;5.444;2023-11-19T12:49:33;100840.50;;;12.22;74.34
48614;BME280;34408;51.426;5.444;2023-11-19T12:52:01;100833.25;;;12.22;74.89
48614;BME280;34408;51.426;5.444;2023-11-19T12:54:34;100840.41;;;12.28;74.61
48614;BME280;34408;51.426;5.444;2023-11-19T12:57:05;100836.75;;;12.23;74.70
48614;BME280;34408;51.426;5.444;2023-11-19T12:59:33;100836.06;;;12.27;74.55
48614;BME280;34408;51.426;5.444;2023-11-19T13:02:01;100844.13;;;12.27;74.09